Time;durP1;ratioP1;P1;durP2;ratioP2;P2;SDS_P1;SDS_P2;PMS_P1;PMS_P2;Temp;Humidity;BMP_temperature;BMP_pressure;BME280_temperature;BME280_humidity;BME280_pressure;Samples;Min_cycle;Max_cycle;Signal;HPM_P1;HPM_P2
2023/10/14 00:01:15;;;;;;;6.45;0.70;;;14.70;99.90;;;;;;5047520;28;20037;-82
2023/10/14 00:03:42;;;;;;;5.28;0.88;;;14.80;99.90;;;;;;5048708;28;20456;-81
2023/10/14 00:06:12;;;;;;;5.10;0.80;;;14.70;99.90;;;;;;5049400;28;20086;-82
2023/10/14 00:08:57;;;;;;;3.75;0.70;;;14.70;99.90;;;;;;5049610;28;20044;-83
2023/10/14 00:11:23;;;;;;;;;;;14.60;99.90;;;;;;5047171;28;20052;-82
2023/10/14 00:13:49;;;;;;;7.57;0.70;;;14.60;99.90;;;;;;5046993;28;19924;-81
2023/10/14 00:18:58;;;;;;;8.63;1.13;;;14.50;99.90;;;;;;5048299;28;20114;-82
2023/10/14 00:21:27;;;;;;;6.82;1.15;;;14.50;99.90;;;;;;5047503;28;20055;-83
2023/10/14 00:23:57;;;;;;;9.48;1.00;;;14.50;99.90;;;;;;5041610;28;20090;-83
2023/10/14 00:26:26;;;;;;;7.68;0.98;;;14.40;99.90;;;;;;5044189;28;20153;-83
2023/10/14 00:28:55;;;;;;;6.40;0.90;;;14.30;99.90;;;;;;5049309;28;20056;-82
2023/10/14 00:31:23;;;;;;;6.20;1.23;;;14.20;99.90;;;;;;5035311;28;20127;-82
2023/10/14 00:33:52;;;;;;;8.63;1.13;;;14.20;99.90;;;;;;5043322;28;20052;-83
2023/10/14 00:36:21;;;;;;;11.23;1.45;;;14.10;99.90;;;;;;5050684;28;20431;-81
2023/10/14 00:38:55;;;;;;;8.88;1.10;;;14.00;99.90;;;;;;5051444;28;20057;-83
2023/10/14 00:41:27;;;;;;;;;;;14.00;99.90;;;;;;5032395;28;20042;-83
2023/10/14 00:43:54;;;;;;;8.02;1.27;;;13.90;99.90;;;;;;5046785;28;19974;-82
2023/10/14 00:46:30;;;;;;;10.63;1.20;;;13.90;99.90;;;;;;5048435;28;20049;-83
2023/10/14 00:49:01;;;;;;;5.65;1.23;;;14.00;99.90;;;;;;5025605;28;20408;-83
2023/10/14 00:51:29;;;;;;;5.22;0.70;;;14.00;99.90;;;;;;5033787;28;20449;-83
2023/10/14 00:54:01;;;;;;;7.38;0.88;;;14.00;99.90;;;;;;5038103;28;20061;-82
2023/10/14 00:56:27;;;;;;;8.55;1.50;;;13.90;99.90;;;;;;5036129;28;20136;-84
2023/10/14 00:58:58;;;;;;;5.05;1.30;;;13.90;99.90;;;;;;5049721;28;20080;-83
2023/10/14 01:01:28;;;;;;;12.20;1.52;;;13.90;99.90;;;;;;5034546;28;20103;-83
2023/10/14 01:04:17;;;;;;;6.18;1.40;;;13.80;99.90;;;;;;5048799;28;20044;-83
2023/10/14 01:06:54;;;;;;;7.55;1.15;;;13.80;99.90;;;;;;5050981;28;20052;-83
2023/10/14 01:09:21;;;;;;;8.40;1.20;;;13.80;99.90;;;;;;5051154;28;20120;-83
2023/10/14 01:11:46;;;;;;;10.13;1.17;;;13.70;99.90;;;;;;5043806;28;20052;-83
2023/10/14 01:14:17;;;;;;;10.77;2.10;;;13.80;99.90;;;;;;5012722;28;20132;-82
2023/10/14 01:16:46;;;;;;;6.53;1.67;;;13.70;99.90;;;;;;5048695;28;20049;-80
2023/10/14 01:19:15;;;;;;;6.90;1.40;;;13.70;99.90;;;;;;5048437;28;20149;-82
2023/10/14 01:21:43;;;;;;;8.63;1.17;;;13.60;99.90;;;;;;5049650;28;20057;-83
2023/10/14 01:24:16;;;;;;;8.05;1.17;;;13.60;99.90;;;;;;5050812;28;20504;-83
2023/10/14 01:26:51;;;;;;;9.15;1.45;;;13.60;99.90;;;;;;5039564;28;20046;-82
2023/10/14 01:29:26;;;;;;;6.65;1.42;;;13.50;99.90;;;;;;5031248;28;20053;-84
2023/10/14 01:32:24;;;;;;;8.65;1.13;;;13.50;99.90;;;;;;5049574;28;20507;-81
2023/10/14 01:34:56;;;;;;;11.55;1.58;;;13.50;99.90;;;;;;5036692;28;20060;-83
2023/10/14 01:37:26;;;;;;;8.90;1.33;;;13.40;99.90;;;;;;5030727;28;20099;-81
2023/10/14 01:39:56;;;;;;;10.50;1.38;;;13.40;99.90;;;;;;5026877;28;20132;-82
2023/10/14 01:42:23;;;;;;;10.40;1.20;;;13.40;99.90;;;;;;5030754;28;20116;-82
2023/10/14 01:44:53;;;;;;;15.13;1.90;;;13.40;99.90;;;;;;5030556;28;20056;-82
2023/10/14 01:47:21;;;;;;;7.18;1.40;;;13.30;99.90;;;;;;5032044;28;20046;-82
2023/10/14 01:49:47;;;;;;;11.90;1.40;;;13.30;99.90;;;;;;5031296;28;20060;-82
2023/10/14 01:52:19;;;;;;;15.13;2.28;;;13.30;99.90;;;;;;5036409;28;20045;-81
2023/10/14 01:54:45;;;;;;;10.05;1.65;;;13.30;99.90;;;;;;5031249;28;20056;-83
2023/10/14 01:57:16;;;;;;;10.50;2.05;;;13.30;99.90;;;;;;5046801;28;20045;-81
2023/10/14 01:59:43;;;;;;;11.95;1.60;;;13.20;99.90;;;;;;5051654;28;20049;-81
2023/10/14 02:02:09;;;;;;;10.35;1.48;;;13.20;99.90;;;;;;5049402;28;20374;-82
2023/10/14 02:04:36;;;;;;;16.02;2.47;;;13.10;99.90;;;;;;5054178;28;20052;-82
2023/10/14 02:07:21;;;;;;;8.40;1.58;;;13.10;99.90;;;;;;5037416;28;20071;-81
2023/10/14 02:09:47;;;;;;;;;;;13.10;99.90;;;;;;5042816;28;20064;-83
2023/10/14 02:12:14;;;;;;;9.05;1.42;;;13.10;99.90;;;;;;5034065;28;19920;-82
2023/10/14 02:14:56;;;;;;;8.75;1.40;;;13.00;99.90;;;;;;5028553;28;20048;-82
2023/10/14 02:17:24;;;;;;;12.10;1.70;;;12.90;99.90;;;;;;5052044;28;20056;-82
2023/10/14 02:19:51;;;;;;;9.27;1.40;;;12.90;99.90;;;;;;5063579;28;20552;-81
2023/10/14 02:22:22;;;;;;;13.38;1.58;;;12.90;99.90;;;;;;5052437;28;20080;-82
2023/10/14 02:24:49;;;;;;;8.07;1.50;;;12.90;99.90;;;;;;5037359;28;20080;-82
2023/10/14 02:27:15;;;;;;;9.60;1.65;;;12.90;99.90;;;;;;5050179;28;20485;-82
2023/10/14 02:29:46;;;;;;;10.43;1.63;;;12.80;99.90;;;;;;5048306;28;20052;-81
2023/10/14 02:32:13;;;;;;;12.85;1.60;;;12.80;99.90;;;;;;5053506;28;20432;-82
2023/10/14 02:34:40;;;;;;;9.43;1.75;;;12.80;99.90;;;;;;5033554;28;20053;-80
2023/10/14 02:37:07;;;;;;;10.45;1.75;;;12.70;99.90;;;;;;5068272;28;20106;-82
2023/10/14 02:39:33;;;;;;;11.60;1.58;;;12.70;99.90;;;;;;5036230;28;20049;-81
2023/10/14 02:41:59;;;;;;;10.35;1.80;;;12.70;99.90;;;;;;5053079;28;20045;-82
2023/10/14 02:44:33;;;;;;;10.82;1.77;;;12.60;99.90;;;;;;5034731;28;20132;-82
2023/10/14 02:47:08;;;;;;;15.98;1.98;;;12.60;99.90;;;;;;5053662;28;20041;-82
2023/10/14 02:49:41;;;;;;;8.30;1.38;;;12.60;99.90;;;;;;5040299;28;20124;-81
2023/10/14 02:52:10;;;;;;;14.45;1.50;;;12.60;99.90;;;;;;5033893;28;20515;-82
2023/10/14 02:54:40;;;;;;;7.78;2.08;;;12.50;99.90;;;;;;5017526;28;20059;-82
2023/10/14 02:57:18;;;;;;;12.45;2.60;;;12.50;99.90;;;;;;5050431;28;20053;-81
2023/10/14 02:59:44;;;;;;;11.27;1.15;;;12.50;99.90;;;;;;5047095;28;20056;-82
2023/10/14 03:02:15;;;;;;;16.77;1.95;;;12.50;99.90;;;;;;5051639;28;20048;-82
2023/10/14 03:13:11;;;;;;;13.45;1.30;;;12.40;99.90;;;;;;5041400;28;20149;-82
2023/10/14 03:15:38;;;;;;;8.25;2.13;;;12.30;99.90;;;;;;5054363;28;20178;-82
2023/10/14 03:18:06;;;;;;;10.57;1.65;;;12.30;99.90;;;;;;5052072;28;20121;-82
2023/10/14 03:20:34;;;;;;;7.80;1.23;;;12.30;99.90;;;;;;5052299;28;20071;-81
2023/10/14 03:23:10;;;;;;;12.10;1.65;;;12.20;99.90;;;;;;5045332;28;20041;-82
2023/10/14 03:25:37;;;;;;;10.40;1.38;;;12.30;99.90;;;;;;5037591;28;20049;-82
2023/10/14 03:28:11;;;;;;;11.65;1.73;;;12.30;99.90;;;;;;5051717;28;20063;-83
2023/10/14 03:30:38;;;;;;;13.75;1.60;;;12.30;99.90;;;;;;5046733;28;20396;-82
2023/10/14 03:33:10;;;;;;;9.32;1.40;;;12.20;99.90;;;;;;5039247;28;20052;-82
2023/10/14 03:35:43;;;;;;;10.07;1.35;;;12.20;99.90;;;;;;5044017;28;20072;-83
2023/10/14 03:38:15;;;;;;;10.40;1.55;;;12.20;99.90;;;;;;5051509;28;20037;-82
2023/10/14 03:43:14;;;;;;;6.63;1.33;;;12.20;99.90;;;;;;5049405;28;20087;-83
2023/10/14 03:48:28;;;;;;;10.77;1.38;;;12.20;99.90;;;;;;5049374;28;20044;-83
2023/10/14 03:51:02;;;;;;;9.05;1.15;;;12.20;99.90;;;;;;5032807;28;20045;-82
2023/10/14 03:53:32;;;;;;;6.65;1.88;;;12.20;99.90;;;;;;5042788;28;20052;-82
2023/10/14 03:56:03;;;;;;;14.75;1.73;;;12.10;99.90;;;;;;5052184;28;20500;-82
2023/10/14 03:58:37;;;;;;;7.22;1.42;;;12.10;99.90;;;;;;5051224;28;20044;-80
2023/10/14 04:01:03;;;;;;;14.73;2.95;;;12.10;99.90;;;;;;5031925;28;20053;-82
2023/10/14 04:03:42;;;;;;;10.05;1.38;;;12.10;99.90;;;;;;5032217;28;20401;-82
2023/10/14 04:06:08;;;;;;;10.95;1.83;;;12.10;99.90;;;;;;5034196;28;20076;-81
2023/10/14 04:08:40;;;;;;;14.65;1.30;;;12.10;99.90;;;;;;5043644;28;20083;-83
2023/10/14 04:11:13;;;;;;;8.93;2.38;;;12.10;99.90;;;;;;5051002;28;20085;-80
2023/10/14 04:14:04;;;;;;;12.05;2.08;;;12.00;99.90;;;;;;5052819;28;20048;-80
2023/10/14 04:19:44;;;;;;;7.70;1.20;;;12.00;99.90;;;;;;5041561;28;20104;-81
2023/10/14 04:24:54;;;;;;;9.35;1.35;;;12.00;99.90;;;;;;5041775;28;20080;-82
2023/10/14 04:30:11;;;;;;;10.93;2.05;;;12.00;99.90;;;;;;5031998;28;20045;-82
2023/10/14 04:32:57;;;;;;;12.57;1.83;;;12.00;99.90;;;;;;5034204;28;20083;-82
2023/10/14 04:35:26;;;;;;;12.68;1.60;;;11.90;99.90;;;;;;5046862;28;20053;-82
2023/10/14 04:37:55;;;;;;;11.32;1.83;;;11.90;99.90;;;;;;5051931;28;20086;-81
2023/10/14 04:45:45;;;;;;;12.10;1.50;;;11.80;99.90;;;;;;5031355;28;20136;-82
2023/10/14 04:48:16;;;;;;;9.63;1.20;;;11.80;99.90;;;;;;5031908;28;20098;-82
2023/10/14 04:50:43;;;;;;;9.25;1.20;;;11.80;99.90;;;;;;5031437;28;20559;-82
2023/10/14 04:53:13;;;;;;;13.20;2.38;;;11.70;99.90;;;;;;5014835;28;20060;-82
2023/10/14 04:55:45;;;;;;;7.40;1.13;;;11.70;99.90;;;;;;5030857;28;20103;-82
2023/10/14 05:00:42;;;;;;;10.73;2.22;;;11.70;99.90;;;;;;5049364;28;20103;-82
2023/10/14 05:03:23;;;;;;;10.05;1.48;;;11.60;99.90;;;;;;5050462;28;20049;-82
2023/10/14 05:05:52;;;;;;;9.88;2.00;;;11.70;99.90;;;;;;5051094;28;20049;-81
2023/10/14 05:08:23;;;;;;;10.38;1.30;;;11.60;99.90;;;;;;5051424;28;20037;-83
2023/10/14 05:10:53;;;;;;;12.65;1.50;;;11.60;99.90;;;;;;5031130;28;20107;-83
2023/10/14 05:13:31;;;;;;;9.00;1.27;;;11.50;99.90;;;;;;5031277;28;20129;-82
2023/10/14 05:16:15;;;;;;;17.33;2.13;;;11.50;99.90;;;;;;5024346;28;20052;-82
2023/10/14 05:18:58;;;;;;;10.48;1.23;;;11.50;99.90;;;;;;5048376;28;20120;-82
2023/10/14 05:21:41;;;;;;;10.80;1.23;;;11.50;99.90;;;;;;5031108;28;20058;-81
2023/10/14 05:24:10;;;;;;;6.80;1.05;;;11.40;99.90;;;;;;5031299;28;20065;-82
2023/10/14 05:26:46;;;;;;;6.00;1.00;;;11.50;99.90;;;;;;5031001;28;20041;-82
2023/10/14 05:29:17;;;;;;;6.20;0.85;;;11.40;99.90;;;;;;5037341;28;20224;-81
2023/10/14 05:31:47;;;;;;;7.85;1.50;;;11.40;99.90;;;;;;5040923;28;20095;-82
2023/10/14 05:34:13;;;;;;;11.30;1.52;;;11.40;99.90;;;;;;5049712;28;20053;-82
2023/10/14 05:36:39;;;;;;;7.22;1.30;;;11.40;99.90;;;;;;5054853;28;20373;-82
2023/10/14 05:39:06;;;;;;;7.55;1.15;;;11.40;99.90;;;;;;5053643;28;20081;-82
2023/10/14 05:41:33;;;;;;;8.13;1.17;;;11.40;99.90;;;;;;5054327;28;20072;-82
2023/10/14 05:43:59;;;;;;;8.02;1.40;;;11.30;99.90;;;;;;5053749;28;20081;-82
2023/10/14 05:46:25;;;;;;;9.32;1.60;;;11.30;99.90;;;;;;5054777;28;20052;-82
2023/10/14 05:48:53;;;;;;;10.80;1.55;;;11.30;99.90;;;;;;5054566;28;20056;-82
2023/10/14 05:51:20;;;;;;;11.57;1.70;;;11.30;99.90;;;;;;5046245;28;20084;-81
2023/10/14 05:53:48;;;;;;;7.10;1.15;;;11.20;99.90;;;;;;5038466;28;20489;-82
2023/10/14 05:56:14;;;;;;;8.13;1.23;;;11.20;99.90;;;;;;5054330;28;20052;-82
2023/10/14 05:58:48;;;;;;;7.43;1.17;;;11.20;99.90;;;;;;5051385;28;20389;-80
2023/10/14 06:01:21;;;;;;;9.27;1.35;;;11.20;99.90;;;;;;5052883;28;20084;-82
2023/10/14 06:03:47;;;;;;;10.35;1.50;;;11.20;99.90;;;;;;5053258;28;20088;-82
2023/10/14 06:06:19;;;;;;;12.48;1.92;;;11.20;99.90;;;;;;5049427;28;20080;-83
2023/10/14 06:08:49;;;;;;;14.85;2.42;;;11.20;99.90;;;;;;5035275;28;20138;-82
2023/10/14 06:11:16;;;;;;;11.02;1.58;;;11.20;99.90;;;;;;5053465;28;20049;-82
2023/10/14 06:13:42;;;;;;;13.48;1.92;;;11.20;99.90;;;;;;5046722;28;20430;-81
2023/10/14 06:16:10;;;;;;;12.70;1.88;;;11.10;99.90;;;;;;5045481;28;20128;-83
2023/10/14 06:18:40;;;;;;;11.20;1.55;;;11.10;99.90;;;;;;5029818;28;20046;-80
2023/10/14 06:21:08;;;;;;;11.98;1.90;;;11.10;99.90;;;;;;5040420;28;20143;-80
2023/10/14 06:23:34;;;;;;;9.43;1.25;;;11.20;99.90;;;;;;5038499;28;20199;-80
2023/10/14 06:26:00;;;;;;;11.70;2.15;;;11.10;99.90;;;;;;5036849;28;20501;-78
2023/10/14 06:28:27;;;;;;;19.08;2.08;;;11.00;99.90;;;;;;5041123;28;20053;-81
2023/10/14 06:30:53;;;;;;;10.35;1.70;;;11.00;99.90;;;;;;5035209;28;20045;-80
2023/10/14 06:33:19;;;;;;;10.48;1.20;;;11.00;99.90;;;;;;5048106;28;20057;-80
2023/10/14 06:35:48;;;;;;;9.88;1.58;;;11.10;99.90;;;;;;5051654;28;20067;-82
2023/10/14 06:38:17;;;;;;;9.35;1.63;;;11.10;99.90;;;;;;5045587;28;20052;-83
2023/10/14 06:40:44;;;;;;;8.80;1.27;;;11.10;99.90;;;;;;5045955;28;20095;-82
2023/10/14 06:43:10;;;;;;;12.55;2.38;;;11.00;99.90;;;;;;5041559;28;20103;-83
2023/10/14 06:45:37;;;;;;;13.07;1.50;;;11.00;99.90;;;;;;5034952;28;20033;-80
2023/10/14 06:48:09;;;;;;;9.07;1.38;;;11.00;99.90;;;;;;5035752;28;20088;-82
2023/10/14 06:50:42;;;;;;;12.20;1.38;;;11.00;99.90;;;;;;5025513;28;20045;-78
2023/10/14 06:53:08;;;;;;;9.15;1.38;;;11.00;99.90;;;;;;5031774;28;20103;-77
2023/10/14 06:55:37;;;;;;;8.68;1.60;;;11.00;99.90;;;;;;5040182;28;20112;-80
2023/10/14 06:58:18;;;;;;;10.98;1.40;;;11.00;99.90;;;;;;5050002;28;20045;-79
2023/10/14 07:00:45;;;;;;;18.65;2.30;;;11.00;99.90;;;;;;5042368;28;20087;-76
2023/10/14 07:03:13;;;;;;;14.13;2.10;;;11.00;99.90;;;;;;5050473;28;20056;-77
2023/10/14 07:05:48;;;;;;;15.18;1.65;;;11.00;99.90;;;;;;5044647;28;20077;-80
2023/10/14 07:08:21;;;;;;;10.55;1.48;;;10.90;99.90;;;;;;5048054;28;20067;-79
2023/10/14 07:10:50;;;;;;;11.73;2.22;;;11.00;99.90;;;;;;5061925;28;20405;-79
2023/10/14 07:13:17;;;;;;;15.40;1.83;;;11.00;99.90;;;;;;5034677;28;20092;-79
2023/10/14 07:15:44;;;;;;;12.32;1.65;;;11.00;99.90;;;;;;5033213;28;20053;-78
2023/10/14 07:18:13;;;;;;;10.20;1.33;;;11.10;99.90;;;;;;5038977;28;20072;-78
2023/10/14 07:20:39;;;;;;;7.95;1.27;;;11.00;99.90;;;;;;5036010;28;20485;-79
2023/10/14 07:23:08;;;;;;;11.32;1.60;;;11.00;99.90;;;;;;4998687;28;20420;-79
2023/10/14 07:25:52;;;;;;;15.30;1.48;;;11.10;99.90;;;;;;5032693;28;20459;-79
2023/10/14 07:28:18;;;;;;;11.13;1.50;;;11.10;99.90;;;;;;5022279;28;20108;-79
2023/10/14 07:30:46;;;;;;;11.10;1.95;;;11.20;99.90;;;;;;5039050;28;20411;-79
2023/10/14 07:33:13;;;;;;;10.35;2.05;;;11.20;99.90;;;;;;5019327;28;20051;-79
2023/10/14 07:35:41;;;;;;;13.02;2.28;;;11.20;99.90;;;;;;5031272;28;20041;-81
2023/10/14 07:38:13;;;;;;;13.95;1.75;;;11.20;99.90;;;;;;5016758;28;20047;-81
2023/10/14 07:40:40;;;;;;;11.10;1.75;;;11.30;99.90;;;;;;5035376;28;20052;-84
2023/10/14 07:43:13;;;;;;;14.48;1.90;;;11.20;99.90;;;;;;5026136;28;20053;-83
2023/10/14 07:45:43;;;;;;;14.95;2.22;;;11.30;99.90;;;;;;5031638;28;20461;-81
2023/10/14 07:48:11;;;;;;;16.40;3.20;;;11.30;99.90;;;;;;5029281;28;20055;-79
2023/10/14 07:50:42;;;;;;;12.15;1.67;;;11.30;99.90;;;;;;5031938;28;20061;-79
2023/10/14 07:53:12;;;;;;;18.55;2.30;;;11.30;99.90;;;;;;5036652;28;20053;-77
2023/10/14 07:55:48;;;;;;;11.90;1.40;;;11.30;99.90;;;;;;5030086;28;20068;-82
2023/10/14 07:58:28;;;;;;;16.05;2.35;;;11.40;99.90;;;;;;5037636;28;20051;-81
2023/10/14 08:00:55;;;;;;;14.20;2.05;;;11.50;99.90;;;;;;5036445;28;20136;-73
2023/10/14 08:03:29;;;;;;;19.20;2.50;;;11.60;99.90;;;;;;5034515;28;20534;-80
2023/10/14 08:05:59;;;;;;;107.72;14.27;;;11.60;99.90;;;;;;5034785;28;20053;-81
2023/10/14 08:08:30;;;;;;;19.25;2.50;;;11.60;99.90;;;;;;5031801;28;20757;-80
2023/10/14 08:10:58;;;;;;;17.23;2.08;;;11.60;99.90;;;;;;5013675;28;20941;-79
2023/10/14 08:13:24;;;;;;;11.80;1.92;;;11.60;99.90;;;;;;5031049;28;20050;-78
2023/10/14 08:15:51;;;;;;;14.80;1.80;;;11.60;99.90;;;;;;5039133;28;20042;-79
2023/10/14 08:18:23;;;;;;;15.27;2.10;;;11.60;99.90;;;;;;5031072;28;20468;-80
2023/10/14 08:20:53;;;;;;;20.88;2.35;;;11.60;99.90;;;;;;5033827;28;20069;-80
2023/10/14 08:23:20;;;;;;;9.98;2.08;;;11.60;99.90;;;;;;5047959;28;20053;-79
2023/10/14 08:25:47;;;;;;;14.75;1.75;;;11.60;99.90;;;;;;5044366;28;20228;-81
2023/10/14 08:28:13;;;;;;;42.75;7.35;;;11.50;99.90;;;;;;5027328;28;20393;-80
2023/10/14 08:30:50;;;;;;;22.02;2.38;;;11.60;99.90;;;;;;5038167;28;20071;-80
2023/10/14 08:33:18;;;;;;;;;;;11.60;99.90;;;;;;5032462;28;20040;-83
2023/10/14 08:35:45;;;;;;;13.68;2.13;;;11.60;99.90;;;;;;5039239;28;19921;-83
2023/10/14 08:38:17;;;;;;;13.10;2.25;;;11.60;99.90;;;;;;5035680;28;20052;-83
2023/10/14 08:40:49;;;;;;;14.25;2.58;;;11.70;99.90;;;;;;5038134;28;20045;-82
2023/10/14 08:43:19;;;;;;;14.60;1.80;;;11.80;99.90;;;;;;5040531;28;20053;-82
2023/10/14 08:45:47;;;;;;;15.65;1.85;;;11.70;99.90;;;;;;5037687;28;20064;-83
2023/10/14 08:48:15;;;;;;;8.80;1.50;;;11.70;99.90;;;;;;5033684;28;20508;-83
2023/10/14 08:50:42;;;;;;;10.43;2.10;;;11.80;99.90;;;;;;5030348;28;20136;-83
2023/10/14 08:53:15;;;;;;;13.05;2.05;;;11.80;99.90;;;;;;5019615;28;20056;-82
2023/10/14 08:55:46;;;;;;;16.48;2.08;;;11.80;99.90;;;;;;5037388;28;20507;-83
2023/10/14 08:58:15;;;;;;;12.65;1.60;;;11.90;99.90;;;;;;5038214;28;20461;-83
2023/10/14 09:00:42;;;;;;;12.05;1.75;;;11.90;99.90;;;;;;5034037;28;20041;-84
2023/10/14 09:03:09;;;;;;;14.77;1.70;;;12.00;99.90;;;;;;5021370;28;20059;-87
2023/10/14 09:05:44;;;;;;;11.43;1.30;;;12.10;99.90;;;;;;5033786;28;20037;-89
2023/10/14 09:08:12;;;;;;;11.52;1.55;;;12.20;99.90;;;;;;5038744;28;20049;-87
2023/10/14 09:10:39;;;;;;;11.85;2.22;;;12.30;99.90;;;;;;5039748;28;20093;-86
2023/10/14 09:13:08;;;;;;;18.95;1.85;;;12.30;99.90;;;;;;5034928;28;20041;-86
2023/10/14 09:15:41;;;;;;;17.80;2.25;;;12.50;99.90;;;;;;5042335;28;20119;-87
2023/10/14 09:18:18;;;;;;;8.60;1.30;;;12.60;99.90;;;;;;5042962;28;20064;-86
2023/10/14 09:20:53;;;;;;;8.25;1.67;;;12.80;99.90;;;;;;5033941;28;20052;-86
2023/10/14 09:23:23;;;;;;;8.50;1.60;;;12.90;99.90;;;;;;5035786;28;20460;-85
2023/10/14 09:25:52;;;;;;;10.75;1.55;;;13.10;99.90;;;;;;5028080;28;20156;-87
2023/10/14 09:28:22;;;;;;;13.38;2.08;;;13.20;99.90;;;;;;5029103;28;20042;-84
2023/10/14 09:30:51;;;;;;;12.15;1.60;;;13.20;99.90;;;;;;5031971;28;20049;-87
2023/10/14 09:33:21;;;;;;;11.00;1.30;;;13.30;99.90;;;;;;5032961;28;20095;-84
2023/10/14 09:35:49;;;;;;;9.70;1.35;;;13.30;99.90;;;;;;5028986;28;20046;-86
2023/10/14 09:38:22;;;;;;;6.75;1.30;;;13.30;99.90;;;;;;5011480;28;20041;-86
2023/10/14 09:40:57;;;;;;;9.65;1.60;;;13.50;99.90;;;;;;5030928;28;20045;-84
2023/10/14 09:43:24;;;;;;;11.77;1.48;;;13.50;99.90;;;;;;5028031;28;20476;-86
2023/10/14 09:45:56;;;;;;;10.85;1.30;;;13.70;99.90;;;;;;5031829;28;20051;-85
2023/10/14 09:48:31;;;;;;;11.00;1.13;;;13.70;99.90;;;;;;5031964;28;20053;-85
2023/10/14 09:51:00;;;;;;;11.32;1.85;;;13.90;99.90;;;;;;5028793;28;20073;-85
2023/10/14 09:53:32;;;;;;;10.30;1.23;;;13.90;99.90;;;;;;5029695;28;20202;-87
2023/10/14 09:56:09;;;;;;;8.38;1.45;;;14.00;99.90;;;;;;5028703;28;20067;-88
2023/10/14 09:58:37;;;;;;;207.43;15.30;;;14.10;99.90;;;;;;5034581;28;20048;-85
2023/10/14 10:01:05;;;;;;;12.52;1.75;;;14.10;99.90;;;;;;5036785;28;20041;-86
2023/10/14 10:03:49;;;;;;;16.25;1.90;;;14.10;99.90;;;;;;5034678;28;20079;-85
2023/10/14 10:06:43;;;;;;;12.00;1.50;;;14.10;99.90;;;;;;5033071;28;20053;-85
2023/10/14 10:09:44;;;;;;;11.88;1.90;;;14.10;99.90;;;;;;5032316;28;20052;-85
2023/10/14 10:12:11;;;;;;;11.75;1.45;;;14.10;99.90;;;;;;5033339;28;20060;-86
2023/10/14 10:14:43;;;;;;;10.10;1.60;;;14.30;99.90;;;;;;5028383;28;20497;-86
2023/10/14 10:17:14;;;;;;;13.73;1.70;;;14.50;99.90;;;;;;5033480;28;20465;-83
2023/10/14 10:19:58;;;;;;;10.75;1.98;;;14.80;99.90;;;;;;5035815;28;20056;-86
2023/10/14 10:22:25;;;;;;;9.02;1.92;;;15.10;99.90;;;;;;5043092;28;20049;-87
2023/10/14 10:24:53;;;;;;;10.77;2.03;;;15.00;99.90;;;;;;5047998;28;20501;-81
2023/10/14 10:27:20;;;;;;;10.10;1.70;;;14.50;99.90;;;;;;5051849;28;20041;-79
2023/10/14 10:29:57;;;;;;;7.45;1.40;;;14.00;99.90;;;;;;5053896;28;20488;-78
2023/10/14 10:32:29;;;;;;;8.73;1.30;;;13.60;99.90;;;;;;5052842;28;20045;-75
2023/10/14 10:35:06;;;;;;;9.32;1.42;;;13.40;99.90;;;;;;5044431;28;20053;-76
2023/10/14 10:37:41;;;;;;;6.85;1.20;;;13.40;99.90;;;;;;5053343;28;20488;-76
2023/10/14 10:40:12;;;;;;;8.85;1.40;;;13.50;99.90;;;;;;5045690;28;20095;-79
2023/10/14 10:42:41;;;;;;;6.75;1.40;;;13.40;99.90;;;;;;5053677;28;20044;-76
2023/10/14 10:45:32;;;;;;;5.35;0.98;;;13.50;99.90;;;;;;5052019;28;20079;-78
2023/10/14 10:48:10;;;;;;;6.22;1.15;;;13.60;99.90;;;;;;5052114;28;20057;-77
2023/10/14 10:50:37;;;;;;;7.53;1.00;;;13.60;99.90;;;;;;5034936;28;20049;-78
2023/10/14 10:53:08;;;;;;;4.00;0.75;;;13.60;99.90;;;;;;5052203;28;20049;-80
2023/10/14 10:55:44;;;;;;;5.53;0.60;;;13.60;99.90;;;;;;5034428;28;20037;-78
2023/10/14 10:58:11;;;;;;;5.78;0.68;;;13.60;99.90;;;;;;5033669;28;20055;-79
2023/10/14 11:00:38;;;;;;;3.70;0.60;;;13.70;99.90;;;;;;5046573;28;20457;-77
2023/10/14 11:03:05;;;;;;;4.95;0.70;;;13.80;99.90;;;;;;5047931;28;20376;-76
2023/10/14 11:05:33;;;;;;;4.90;0.70;;;13.90;99.90;;;;;;5046127;28;20052;-78
2023/10/14 11:08:04;;;;;;;5.55;0.90;;;14.00;99.90;;;;;;5051806;28;20078;-76
2023/10/14 11:10:31;;;;;;;7.03;0.95;;;14.10;99.90;;;;;;5051141;28;20405;-77
2023/10/14 11:13:01;;;;;;;6.38;0.68;;;14.20;99.90;;;;;;5048407;28;20041;-77
2023/10/14 11:15:31;;;;;;;7.95;0.93;;;14.30;99.90;;;;;;5021529;28;20393;-79
2023/10/14 11:17:58;;;;;;;5.72;0.70;;;14.40;99.90;;;;;;5051179;28;20063;-77
2023/10/14 11:20:33;;;;;;;8.20;1.38;;;14.50;99.90;;;;;;5046058;28;20115;-77
2023/10/14 11:23:03;;;;;;;13.38;1.52;;;14.60;99.90;;;;;;5023377;28;20053;-78
2023/10/14 11:25:30;;;;;;;14.25;1.73;;;14.70;99.90;;;;;;5038342;28;20056;-78
2023/10/14 11:27:57;;;;;;;10.18;1.45;;;14.70;99.90;;;;;;5034064;28;20053;-78
2023/10/14 11:30:29;;;;;;;11.05;1.52;;;14.70;99.90;;;;;;5037398;28;20080;-78
2023/10/14 11:32:59;;;;;;;13.70;2.00;;;14.80;99.90;;;;;;5028702;28;20060;-79
2023/10/14 11:35:28;;;;;;;230.40;17.98;;;14.70;99.90;;;;;;5032072;28;20042;-78
2023/10/14 11:38:03;;;;;;;10.52;1.42;;;14.50;99.90;;;;;;5024696;28;20049;-79
2023/10/14 11:40:36;;;;;;;8.27;1.80;;;14.10;99.90;;;;;;5037379;28;20045;-79
2023/10/14 11:43:05;;;;;;;10.50;1.38;;;13.80;99.90;;;;;;5035447;28;20050;-78
2023/10/14 11:45:31;;;;;;;9.23;1.67;;;13.50;99.90;;;;;;5031326;28;20091;-80
2023/10/14 11:48:00;;;;;;;9.75;1.38;;;13.30;99.90;;;;;;5034195;28;20049;-79
2023/10/14 11:50:26;;;;;;;16.23;1.75;;;13.20;99.90;;;;;;5034265;28;20119;-80
2023/10/14 11:52:53;;;;;;;7.85;1.35;;;13.00;99.90;;;;;;5029788;28;20469;-79
2023/10/14 11:55:19;;;;;;;13.60;1.30;;;12.90;99.90;;;;;;5032628;28;20059;-79
2023/10/14 11:57:47;;;;;;;18.33;3.65;;;12.80;99.90;;;;;;5036803;28;20041;-79
2023/10/14 12:00:17;;;;;;;20.85;2.13;;;12.70;99.90;;;;;;5033896;28;20091;-78
2023/10/14 12:02:47;;;;;;;13.45;1.73;;;12.60;99.90;;;;;;5031644;28;20123;-79
2023/10/14 12:05:16;;;;;;;8.07;1.30;;;12.70;99.90;;;;;;5024470;28;20053;-78
2023/10/14 12:07:43;;;;;;;9.02;1.23;;;12.90;99.90;;;;;;5026033;28;20052;-79
2023/10/14 12:10:09;;;;;;;8.40;1.23;;;13.10;99.90;;;;;;5030839;28;20041;-77
2023/10/14 12:12:38;;;;;;;8.93;1.75;;;13.30;99.90;;;;;;5046201;28;20052;-77
2023/10/14 12:15:06;;;;;;;16.88;2.33;;;13.50;99.90;;;;;;5042942;28;20124;-77
2023/10/14 12:17:38;;;;;;;9.25;1.40;;;13.60;99.90;;;;;;5046511;28;20479;-76
2023/10/14 12:20:05;;;;;;;10.00;1.63;;;13.80;99.90;;;;;;5040919;28;20106;-76
2023/10/14 12:22:32;;;;;;;9.75;1.33;;;13.90;99.90;;;;;;5043143;28;20076;-80
2023/10/14 12:24:58;;;;;;;14.63;1.80;;;13.80;99.90;;;;;;5057062;28;20056;-80
2023/10/14 12:27:28;;;;;;;13.10;1.70;;;13.70;99.90;;;;;;5038465;28;20076;-80
2023/10/14 12:29:54;;;;;;;13.20;2.05;;;13.70;99.90;;;;;;5035287;28;20049;-79
2023/10/14 12:32:20;;;;;;;10.27;1.80;;;13.60;99.90;;;;;;5040153;28;20141;-79
2023/10/14 12:34:48;;;;;;;10.73;1.40;;;13.60;99.90;;;;;;5031840;28;20110;-80
2023/10/14 12:37:21;;;;;;;9.68;1.40;;;13.50;99.90;;;;;;5040060;28;20059;-80
2023/10/14 12:40:00;;;;;;;10.70;1.35;;;13.40;99.90;;;;;;5034792;28;20098;-80
2023/10/14 12:42:44;;;;;;;13.75;1.98;;;13.50;99.90;;;;;;5035774;28;20420;-77
2023/10/14 12:45:14;;;;;;;19.27;2.47;;;13.60;99.90;;;;;;5035474;28;20154;-77
2023/10/14 12:47:48;;;;;;;9.27;1.90;;;13.60;99.90;;;;;;5041404;28;20049;-82
2023/10/14 12:50:19;;;;;;;11.30;1.65;;;13.70;99.90;;;;;;5040549;28;20060;-79
2023/10/14 12:52:50;;;;;;;11.50;1.80;;;13.60;99.90;;;;;;5034881;28;20080;-79
2023/10/14 12:55:22;;;;;;;7.80;1.42;;;13.60;99.90;;;;;;5035057;28;20045;-80
2023/10/14 12:57:49;;;;;;;11.77;2.13;;;13.60;99.90;;;;;;5039621;28;20048;-78
2023/10/14 13:00:25;;;;;;;11.43;2.13;;;13.70;99.90;;;;;;5040423;28;20737;-75
2023/10/14 13:02:55;;;;;;;15.27;3.08;;;13.70;99.90;;;;;;5028625;28;20044;-79
2023/10/14 13:05:21;;;;;;;13.52;2.53;;;13.70;99.90;;;;;;5024833;28;20037;-78
2023/10/14 13:07:51;;;;;;;13.10;1.98;;;13.80;99.90;;;;;;5043268;28;20120;-77
2023/10/14 13:10:24;;;;;;;10.80;1.85;;;13.90;99.90;;;;;;5047108;28;20455;-79
2023/10/14 13:12:56;;;;;;;14.63;2.63;;;14.00;99.90;;;;;;5050731;28;20049;-78
2023/10/14 13:15:29;;;;;;;13.05;2.20;;;14.20;99.90;;;;;;5050015;28;20043;-75
2023/10/14 13:18:00;;;;;;;11.80;1.77;;;14.40;99.90;;;;;;5035904;28;20127;-76
2023/10/14 13:20:31;;;;;;;13.70;1.85;;;14.50;99.90;;;;;;5048667;28;20103;-77
2023/10/14 13:22:59;;;;;;;11.98;1.73;;;14.30;99.90;;;;;;5049897;28;20053;-76
2023/10/14 13:25:25;;;;;;;12.73;1.95;;;14.20;99.90;;;;;;5037257;28;20124;-76
2023/10/14 13:27:52;;;;;;;12.60;1.83;;;14.00;99.90;;;;;;5043650;28;20051;-76
2023/10/14 13:30:22;;;;;;;7.35;1.38;;;13.90;99.90;;;;;;5045646;28;20124;-79